sensor_id;sensor_type;location;lat;lon;timestamp;pressure;altitude;pressure_sealevel;temperature;humidity
70730;BME280;58315;53.336;55.932;2023-06-26T00:00:07;98685.34;;;14.44;64.05
70730;BME280;58315;53.336;55.932;2023-06-26T00:02:34;98675.25;;;14.40;64.20
70730;BME280;58315;53.336;55.932;2023-06-26T00:05:00;98674.53;;;14.31;64.26
70730;BME280;58315;53.336;55.932;2023-06-26T00:07:32;98675.53;;;14.30;64.17
70730;BME280;58315;53.336;55.932;2023-06-26T00:10:03;98687.16;;;14.29;64.31
70730;BME280;58315;53.336;55.932;2023-06-26T00:12:32;98682.31;;;14.18;64.12
70730;BME280;58315;53.336;55.932;2023-06-26T00:14:59;98690.47;;;14.16;64.53
70730;BME280;58315;53.336;55.932;2023-06-26T00:17:25;98695.78;;;14.16;64.30
70730;BME280;58315;53.336;55.932;2023-06-26T00:19:51;98696.81;;;14.15;64.47
70730;BME280;58315;53.336;55.932;2023-06-26T00:22:18;98706.50;;;14.23;64.39
70730;BME280;58315;53.336;55.932;2023-06-26T00:24:45;98697.78;;;14.29;64.29
70730;BME280;58315;53.336;55.932;2023-06-26T00:27:12;98700.28;;;14.31;64.08
70730;BME280;58315;53.336;55.932;2023-06-26T00:29:38;98699.38;;;14.23;64.09
70730;BME280;58315;53.336;55.932;2023-06-26T00:32:06;98693.41;;;14.21;64.14
70730;BME280;58315;53.336;55.932;2023-06-26T00:34:34;98692.47;;;14.29;64.04
70730;BME280;58315;53.336;55.932;2023-06-26T00:37:01;98687.91;;;14.23;63.95
70730;BME280;58315;53.336;55.932;2023-06-26T00:39:27;98694.31;;;14.29;64.10
70730;BME280;58315;53.336;55.932;2023-06-26T00:41:53;98693.13;;;14.31;63.77
70730;BME280;58315;53.336;55.932;2023-06-26T00:44:20;98692.47;;;14.29;63.93
70730;BME280;58315;53.336;55.932;2023-06-26T00:46:47;98697.44;;;14.32;63.94
70730;BME280;58315;53.336;55.932;2023-06-26T00:49:15;98700.75;;;14.34;63.77
70730;BME280;58315;53.336;55.932;2023-06-26T00:51:41;98700.44;;;14.44;63.79
70730;BME280;58315;53.336;55.932;2023-06-26T00:54:08;98698.25;;;14.62;63.65
70730;BME280;58315;53.336;55.932;2023-06-26T00:56:35;98701.38;;;15.02;62.80
70730;BME280;58315;53.336;55.932;2023-06-26T00:59:01;98700.44;;;15.74;62.41
70730;BME280;58315;53.336;55.932;2023-06-26T01:01:28;98698.41;;;16.39;60.85
70730;BME280;58315;53.336;55.932;2023-06-26T01:03:54;98706.31;;;17.22;59.76
70730;BME280;58315;53.336;55.932;2023-06-26T01:06:22;98690.16;;;17.76;56.82
70730;BME280;58315;53.336;55.932;2023-06-26T01:08:50;98697.72;;;18.19;56.10
70730;BME280;58315;53.336;55.932;2023-06-26T01:11:18;98696.75;;;18.65;54.77
70730;BME280;58315;53.336;55.932;2023-06-26T01:13:45;98703.97;;;19.16;53.63
70730;BME280;58315;53.336;55.932;2023-06-26T01:16:12;98702.38;;;19.34;52.60
70730;BME280;58315;53.336;55.932;2023-06-26T01:18:41;98700.47;;;19.41;51.74
70730;BME280;58315;53.336;55.932;2023-06-26T01:21:11;98698.84;;;19.71;49.99
70730;BME280;58315;53.336;55.932;2023-06-26T01:26:30;98700.91;;;20.38;50.33
70730;BME280;58315;53.336;55.932;2023-06-26T01:29:02;98700.03;;;20.81;49.05
70730;BME280;58315;53.336;55.932;2023-06-26T01:31:31;98705.91;;;20.71;48.29
70730;BME280;58315;53.336;55.932;2023-06-26T01:33:58;98708.34;;;20.36;49.14
70730;BME280;58315;53.336;55.932;2023-06-26T01:36:25;98698.44;;;19.74;49.79
70730;BME280;58315;53.336;55.932;2023-06-26T01:38:51;98708.84;;;19.19;50.67
70730;BME280;58315;53.336;55.932;2023-06-26T01:41:18;98715.28;;;18.73;51.43
70730;BME280;58315;53.336;55.932;2023-06-26T01:44:25;98707.50;;;18.52;52.56
70730;BME280;58315;53.336;55.932;2023-06-26T01:52:20;98719.56;;;17.90;54.42
70730;BME280;58315;53.336;55.932;2023-06-26T01:54:58;98718.31;;;17.86;54.24
70730;BME280;58315;53.336;55.932;2023-06-26T01:57:31;98715.41;;;17.54;54.69
70730;BME280;58315;53.336;55.932;2023-06-26T01:59:59;98717.03;;;17.42;55.15
70730;BME280;58315;53.336;55.932;2023-06-26T02:02:28;98706.13;;;17.23;55.58
70730;BME280;58315;53.336;55.932;2023-06-26T02:04:54;98710.63;;;17.16;55.86
70730;BME280;58315;53.336;55.932;2023-06-26T02:07:21;98704.88;;;17.13;55.87
70730;BME280;58315;53.336;55.932;2023-06-26T02:09:47;98705.03;;;16.98;56.34
70730;BME280;58315;53.336;55.932;2023-06-26T02:12:13;98704.63;;;17.01;56.31
70730;BME280;58315;53.336;55.932;2023-06-26T02:14:39;98707.13;;;17.09;56.55
70730;BME280;58315;53.336;55.932;2023-06-26T02:17:05;98714.53;;;17.20;56.21
70730;BME280;58315;53.336;55.932;2023-06-26T02:19:32;98712.88;;;17.13;56.18
70730;BME280;58315;53.336;55.932;2023-06-26T02:21:58;98713.88;;;17.05;56.60
70730;BME280;58315;53.336;55.932;2023-06-26T02:24:24;98719.44;;;17.10;56.58
70730;BME280;58315;53.336;55.932;2023-06-26T02:26:50;98711.44;;;17.10;56.43
70730;BME280;58315;53.336;55.932;2023-06-26T02:29:16;98711.00;;;17.06;56.54
70730;BME280;58315;53.336;55.932;2023-06-26T02:31:42;98715.16;;;17.16;56.71
70730;BME280;58315;53.336;55.932;2023-06-26T02:34:10;98719.25;;;17.18;56.61
70730;BME280;58315;53.336;55.932;2023-06-26T02:36:36;98715.38;;;17.27;56.42
70730;BME280;58315;53.336;55.932;2023-06-26T02:39:04;98721.16;;;17.38;56.76
70730;BME280;58315;53.336;55.932;2023-06-26T02:41:30;98724.47;;;17.59;56.23
70730;BME280;58315;53.336;55.932;2023-06-26T02:43:58;98724.66;;;17.71;55.62
70730;BME280;58315;53.336;55.932;2023-06-26T02:46:25;98723.41;;;18.20;54.94
70730;BME280;58315;53.336;55.932;2023-06-26T02:48:51;98729.44;;;19.64;54.50
70730;BME280;58315;53.336;55.932;2023-06-26T02:51:18;98718.69;;;20.87;51.00
70730;BME280;58315;53.336;55.932;2023-06-26T02:53:44;98728.25;;;21.62;49.47
70730;BME280;58315;53.336;55.932;2023-06-26T02:56:10;98719.66;;;22.42;47.19
70730;BME280;58315;53.336;55.932;2023-06-26T02:58:37;98724.47;;;23.49;44.70
70730;BME280;58315;53.336;55.932;2023-06-26T03:01:03;98722.94;;;23.87;43.58
70730;BME280;58315;53.336;55.932;2023-06-26T03:03:29;98727.84;;;24.63;43.56
70730;BME280;58315;53.336;55.932;2023-06-26T03:05:56;98716.84;;;25.40;41.74
70730;BME280;58315;53.336;55.932;2023-06-26T03:08:24;98714.59;;;25.91;40.13
70730;BME280;58315;53.336;55.932;2023-06-26T03:10:51;98706.63;;;25.74;37.57
70730;BME280;58315;53.336;55.932;2023-06-26T03:13:17;98719.97;;;25.27;40.52
70730;BME280;58315;53.336;55.932;2023-06-26T03:15:45;98716.53;;;25.10;39.73
70730;BME280;58315;53.336;55.932;2023-06-26T03:18:11;98713.53;;;24.84;39.92
70730;BME280;58315;53.336;55.932;2023-06-26T03:20:37;98707.41;;;24.11;40.46
70730;BME280;58315;53.336;55.932;2023-06-26T03:23:04;98714.13;;;23.75;41.05
70730;BME280;58315;53.336;55.932;2023-06-26T03:25:30;98709.88;;;23.96;41.37
70730;BME280;58315;53.336;55.932;2023-06-26T03:28:09;98706.56;;;24.88;40.65
70730;BME280;58315;53.336;55.932;2023-06-26T03:30:36;98705.13;;;25.57;38.69
70730;BME280;58315;53.336;55.932;2023-06-26T03:33:02;98699.78;;;25.67;38.37
70730;BME280;58315;53.336;55.932;2023-06-26T03:35:28;98700.28;;;26.33;37.86
70730;BME280;58315;53.336;55.932;2023-06-26T03:37:54;98710.41;;;27.21;36.52
70730;BME280;58315;53.336;55.932;2023-06-26T03:40:20;98704.47;;;27.29;35.77
70730;BME280;58315;53.336;55.932;2023-06-26T03:42:46;98698.16;;;26.45;36.90
70730;BME280;58315;53.336;55.932;2023-06-26T03:45:12;98711.03;;;26.76;37.62
70730;BME280;58315;53.336;55.932;2023-06-26T03:47:39;98714.50;;;27.34;36.65
70730;BME280;58315;53.336;55.932;2023-06-26T03:50:06;98716.97;;;28.38;36.04
70730;BME280;58315;53.336;55.932;2023-06-26T03:52:32;98707.22;;;28.96;34.49
70730;BME280;58315;53.336;55.932;2023-06-26T03:54:58;98708.81;;;29.07;32.78
70730;BME280;58315;53.336;55.932;2023-06-26T03:57:24;98706.84;;;29.13;33.56
70730;BME280;58315;53.336;55.932;2023-06-26T03:59:52;98717.75;;;29.52;32.95
70730;BME280;58315;53.336;55.932;2023-06-26T04:02:21;98713.91;;;29.19;33.49
70730;BME280;58315;53.336;55.932;2023-06-26T04:04:47;98719.78;;;29.37;33.09
70730;BME280;58315;53.336;55.932;2023-06-26T04:07:13;98715.81;;;29.19;32.29
70730;BME280;58315;53.336;55.932;2023-06-26T04:09:39;98714.75;;;29.10;32.51
70730;BME280;58315;53.336;55.932;2023-06-26T04:12:06;98713.69;;;29.50;32.92
70730;BME280;58315;53.336;55.932;2023-06-26T04:14:32;98702.88;;;29.79;31.72
70730;BME280;58315;53.336;55.932;2023-06-26T04:16:59;98717.84;;;30.11;32.51
70730;BME280;58315;53.336;55.932;2023-06-26T04:19:27;98709.94;;;30.38;31.64
70730;BME280;58315;53.336;55.932;2023-06-26T04:21:53;98707.69;;;30.69;30.92
70730;BME280;58315;53.336;55.932;2023-06-26T04:24:19;98705.03;;;31.07;30.51
70730;BME280;58315;53.336;55.932;2023-06-26T04:26:45;98705.63;;;31.61;29.35
70730;BME280;58315;53.336;55.932;2023-06-26T04:29:11;98707.22;;;31.62;28.85
70730;BME280;58315;53.336;55.932;2023-06-26T04:31:38;98696.41;;;31.57;28.88
70730;BME280;58315;53.336;55.932;2023-06-26T04:34:04;98699.25;;;31.65;29.70
70730;BME280;58315;53.336;55.932;2023-06-26T04:36:30;98686.81;;;31.92;29.10
70730;BME280;58315;53.336;55.932;2023-06-26T04:38:59;98692.91;;;32.03;29.54
70730;BME280;58315;53.336;55.932;2023-06-26T04:41:25;98695.06;;;32.88;28.50
70730;BME280;58315;53.336;55.932;2023-06-26T04:43:51;98688.88;;;33.33;28.53
70730;BME280;58315;53.336;55.932;2023-06-26T04:46:17;98688.03;;;33.91;28.41
70730;BME280;58315;53.336;55.932;2023-06-26T04:48:43;98686.41;;;33.90;27.39
70730;BME280;58315;53.336;55.932;2023-06-26T04:51:11;98684.84;;;33.98;27.48
70730;BME280;58315;53.336;55.932;2023-06-26T04:53:37;98686.66;;;34.02;26.58
70730;BME280;58315;53.336;55.932;2023-06-26T04:56:03;98678.81;;;34.10;26.80
70730;BME280;58315;53.336;55.932;2023-06-26T04:58:29;98683.50;;;34.18;25.64
70730;BME280;58315;53.336;55.932;2023-06-26T05:00:55;98679.00;;;34.22;25.77
70730;BME280;58315;53.336;55.932;2023-06-26T05:03:21;98689.75;;;34.49;26.58
70730;BME280;58315;53.336;55.932;2023-06-26T05:05:47;98677.94;;;34.97;25.58
70730;BME280;58315;53.336;55.932;2023-06-26T05:08:21;98678.13;;;35.36;25.04
70730;BME280;58315;53.336;55.932;2023-06-26T05:10:48;98672.47;;;34.97;25.09
70730;BME280;58315;53.336;55.932;2023-06-26T05:13:14;98682.72;;;34.26;25.34
70730;BME280;58315;53.336;55.932;2023-06-26T05:15:44;98681.00;;;34.30;24.98
70730;BME280;58315;53.336;55.932;2023-06-26T05:18:10;98679.66;;;33.65;25.65
70730;BME280;58315;53.336;55.932;2023-06-26T05:20:37;98675.72;;;34.11;25.53
70730;BME280;58315;53.336;55.932;2023-06-26T05:23:03;98670.84;;;33.99;25.20
70730;BME280;58315;53.336;55.932;2023-06-26T05:25:31;98677.72;;;33.97;24.85
70730;BME280;58315;53.336;55.932;2023-06-26T05:27:58;98682.31;;;34.41;25.08
70730;BME280;58315;53.336;55.932;2023-06-26T05:30:25;98685.06;;;33.56;26.07
70730;BME280;58315;53.336;55.932;2023-06-26T05:32:53;98687.81;;;32.56;27.28
70730;BME280;58315;53.336;55.932;2023-06-26T05:35:22;98682.53;;;32.46;27.45
70730;BME280;58315;53.336;55.932;2023-06-26T05:37:50;98680.72;;;32.55;26.34
70730;BME280;58315;53.336;55.932;2023-06-26T05:40:17;98681.69;;;32.87;26.36
70730;BME280;58315;53.336;55.932;2023-06-26T05:42:46;98684.06;;;33.52;26.31
70730;BME280;58315;53.336;55.932;2023-06-26T05:45:12;98683.59;;;34.35;25.23
70730;BME280;58315;53.336;55.932;2023-06-26T05:47:38;98679.13;;;34.08;25.02
70730;BME280;58315;53.336;55.932;2023-06-26T05:50:06;98683.41;;;34.80;25.28
70730;BME280;58315;53.336;55.932;2023-06-26T05:52:32;98697.19;;;35.06;23.86
70730;BME280;58315;53.336;55.932;2023-06-26T05:54:59;98673.59;;;33.99;24.09
70730;BME280;58315;53.336;55.932;2023-06-26T05:57:30;98683.06;;;32.62;25.28
70730;BME280;58315;53.336;55.932;2023-06-26T05:59:56;98671.78;;;32.91;26.13
70730;BME280;58315;53.336;55.932;2023-06-26T06:02:23;98675.69;;;34.02;25.00
70730;BME280;58315;53.336;55.932;2023-06-26T06:04:49;98677.06;;;33.91;24.38
70730;BME280;58315;53.336;55.932;2023-06-26T06:07:15;98680.22;;;33.76;25.15
70730;BME280;58315;53.336;55.932;2023-06-26T06:09:41;98662.22;;;33.92;24.51
70730;BME280;58315;53.336;55.932;2023-06-26T06:12:08;98683.31;;;32.88;25.61
70730;BME280;58315;53.336;55.932;2023-06-26T06:14:34;98684.88;;;32.53;26.30
70730;BME280;58315;53.336;55.932;2023-06-26T06:17:01;98685.13;;;33.06;25.27
70730;BME280;58315;53.336;55.932;2023-06-26T06:19:27;98682.16;;;33.17;24.77
70730;BME280;58315;53.336;55.932;2023-06-26T06:21:53;98682.81;;;33.58;24.54
70730;BME280;58315;53.336;55.932;2023-06-26T06:24:20;98682.22;;;32.61;25.47
70730;BME280;58315;53.336;55.932;2023-06-26T06:26:46;98678.97;;;32.04;26.08
70730;BME280;58315;53.336;55.932;2023-06-26T06:29:12;98680.84;;;31.57;26.29
70730;BME280;58315;53.336;55.932;2023-06-26T06:31:38;98684.84;;;32.11;26.23
70730;BME280;58315;53.336;55.932;2023-06-26T06:34:04;98683.59;;;31.90;26.70
70730;BME280;58315;53.336;55.932;2023-06-26T06:36:30;98672.88;;;30.85;27.81
70730;BME280;58315;53.336;55.932;2023-06-26T06:38:57;98669.97;;;29.75;28.18
70730;BME280;58315;53.336;55.932;2023-06-26T06:41:23;98664.19;;;29.08;28.67
70730;BME280;58315;53.336;55.932;2023-06-26T06:43:49;98664.03;;;27.74;30.15
70730;BME280;58315;53.336;55.932;2023-06-26T06:46:15;98672.94;;;27.08;31.79
70730;BME280;58315;53.336;55.932;2023-06-26T06:48:41;98671.59;;;27.10;32.08
70730;BME280;58315;53.336;55.932;2023-06-26T06:51:07;98664.97;;;26.71;32.88
70730;BME280;58315;53.336;55.932;2023-06-26T06:53:33;98666.31;;;26.15;34.73
70730;BME280;58315;53.336;55.932;2023-06-26T06:55:59;98684.31;;;25.89;33.96
70730;BME280;58315;53.336;55.932;2023-06-26T06:58:25;98676.19;;;25.94;34.19
70730;BME280;58315;53.336;55.932;2023-06-26T07:00:51;98680.47;;;25.85;34.77
70730;BME280;58315;53.336;55.932;2023-06-26T07:03:18;98675.13;;;25.95;34.03
70730;BME280;58315;53.336;55.932;2023-06-26T07:05:44;98687.41;;;25.44;34.62
70730;BME280;58315;53.336;55.932;2023-06-26T07:08:10;98678.66;;;25.32;34.66
70730;BME280;58315;53.336;55.932;2023-06-26T07:10:36;98685.66;;;25.06;35.27
70730;BME280;58315;53.336;55.932;2023-06-26T07:13:02;98685.56;;;24.95;35.20
70730;BME280;58315;53.336;55.932;2023-06-26T07:15:28;98685.16;;;25.09;35.11
70730;BME280;58315;53.336;55.932;2023-06-26T07:17:54;98686.06;;;24.92;34.83
70730;BME280;58315;53.336;55.932;2023-06-26T07:20:20;98679.91;;;24.75;34.96
70730;BME280;58315;53.336;55.932;2023-06-26T07:22:46;98677.19;;;24.97;34.03
70730;BME280;58315;53.336;55.932;2023-06-26T07:25:13;98685.59;;;25.22;34.26
70730;BME280;58315;53.336;55.932;2023-06-26T07:27:40;98678.09;;;25.08;33.80
70730;BME280;58315;53.336;55.932;2023-06-26T07:30:07;98689.19;;;25.06;33.86
70730;BME280;58315;53.336;55.932;2023-06-26T07:32:37;98701.84;;;24.78;34.95
70730;BME280;58315;53.336;55.932;2023-06-26T07:35:04;98698.31;;;24.56;35.34
70730;BME280;58315;53.336;55.932;2023-06-26T07:37:32;98694.88;;;24.61;35.55
70730;BME280;58315;53.336;55.932;2023-06-26T07:39:58;98684.38;;;24.64;35.01
70730;BME280;58315;53.336;55.932;2023-06-26T07:42:24;98686.75;;;24.83;35.08
70730;BME280;58315;53.336;55.932;2023-06-26T07:44:50;98689.03;;;24.69;35.71
70730;BME280;58315;53.336;55.932;2023-06-26T07:47:16;98688.78;;;24.70;37.06
70730;BME280;58315;53.336;55.932;2023-06-26T07:49:42;98702.16;;;24.60;36.91
70730;BME280;58315;53.336;55.932;2023-06-26T07:52:08;98697.09;;;24.08;36.53
70730;BME280;58315;53.336;55.932;2023-06-26T07:54:37;98698.59;;;23.82;37.01
70730;BME280;58315;53.336;55.932;2023-06-26T07:57:05;98702.50;;;23.91;37.03
70730;BME280;58315;53.336;55.932;2023-06-26T07:59:33;98705.72;;;23.88;37.92
70730;BME280;58315;53.336;55.932;2023-06-26T08:01:59;98709.97;;;23.39;39.86
70730;BME280;58315;53.336;55.932;2023-06-26T08:04:26;98717.94;;;23.17;41.00
70730;BME280;58315;53.336;55.932;2023-06-26T08:06:54;98716.53;;;22.74;42.71
70730;BME280;58315;53.336;55.932;2023-06-26T08:09:23;98720.88;;;22.63;42.50
70730;BME280;58315;53.336;55.932;2023-06-26T08:11:50;98716.78;;;22.72;42.45
70730;BME280;58315;53.336;55.932;2023-06-26T08:14:17;98723.44;;;22.70;42.31
70730;BME280;58315;53.336;55.932;2023-06-26T08:16:43;98714.81;;;22.68;42.37
70730;BME280;58315;53.336;55.932;2023-06-26T08:19:11;98714.72;;;22.91;41.30
70730;BME280;58315;53.336;55.932;2023-06-26T08:21:37;98709.78;;;23.12;40.80
70730;BME280;58315;53.336;55.932;2023-06-26T08:24:03;98710.47;;;23.35;40.64
70730;BME280;58315;53.336;55.932;2023-06-26T08:26:29;98696.91;;;23.30;39.90
70730;BME280;58315;53.336;55.932;2023-06-26T08:28:55;98709.09;;;23.04;40.42
70730;BME280;58315;53.336;55.932;2023-06-26T08:31:21;98708.97;;;23.11;41.59
70730;BME280;58315;53.336;55.932;2023-06-26T08:33:47;98713.75;;;23.09;40.42
70730;BME280;58315;53.336;55.932;2023-06-26T08:36:13;98715.31;;;23.05;40.87
70730;BME280;58315;53.336;55.932;2023-06-26T08:38:39;98721.69;;;22.75;40.49
70730;BME280;58315;53.336;55.932;2023-06-26T08:41:06;98731.53;;;22.70;41.52
70730;BME280;58315;53.336;55.932;2023-06-26T08:43:33;98752.88;;;22.12;45.03
70730;BME280;58315;53.336;55.932;2023-06-26T08:45:59;98770.63;;;20.81;48.16
70730;BME280;58315;53.336;55.932;2023-06-26T08:48:26;98749.66;;;19.85;48.99
70730;BME280;58315;53.336;55.932;2023-06-26T08:50:55;98744.81;;;19.37;47.85
70730;BME280;58315;53.336;55.932;2023-06-26T08:56:07;98748.72;;;19.34;51.08
70730;BME280;58315;53.336;55.932;2023-06-26T08:58:33;98747.84;;;19.47;52.51
70730;BME280;58315;53.336;55.932;2023-06-26T09:01:02;98744.81;;;19.75;52.88
70730;BME280;58315;53.336;55.932;2023-06-26T09:03:28;98746.00;;;20.04;53.59
70730;BME280;58315;53.336;55.932;2023-06-26T09:05:55;98745.28;;;20.15;52.92
70730;BME280;58315;53.336;55.932;2023-06-26T09:08:21;98761.84;;;20.56;53.09
70730;BME280;58315;53.336;55.932;2023-06-26T09:10:47;98755.91;;;21.02;52.13
70730;BME280;58315;53.336;55.932;2023-06-26T09:13:13;98752.25;;;21.45;52.18
70730;BME280;58315;53.336;55.932;2023-06-26T09:15:43;98757.72;;;21.80;50.82
70730;BME280;58315;53.336;55.932;2023-06-26T09:18:10;98763.66;;;21.71;49.04
70730;BME280;58315;53.336;55.932;2023-06-26T09:20:36;98764.00;;;21.62;49.22
70730;BME280;58315;53.336;55.932;2023-06-26T09:23:02;98763.81;;;21.76;47.43
70730;BME280;58315;53.336;55.932;2023-06-26T09:25:29;98765.81;;;22.04;47.45
70730;BME280;58315;53.336;55.932;2023-06-26T09:27:56;98777.22;;;22.29;47.31
70730;BME280;58315;53.336;55.932;2023-06-26T09:30:22;98762.69;;;22.30;45.38
70730;BME280;58315;53.336;55.932;2023-06-26T09:32:49;98766.81;;;22.56;45.44
70730;BME280;58315;53.336;55.932;2023-06-26T09:35:16;98761.19;;;22.34;44.13
70730;BME280;58315;53.336;55.932;2023-06-26T09:37:43;98764.19;;;22.03;43.66
70730;BME280;58315;53.336;55.932;2023-06-26T09:40:09;98757.63;;;21.87;43.83
70730;BME280;58315;53.336;55.932;2023-06-26T09:42:35;98760.78;;;21.96;44.29
70730;BME280;58315;53.336;55.932;2023-06-26T09:45:02;98756.16;;;22.14;43.92
70730;BME280;58315;53.336;55.932;2023-06-26T09:47:34;98762.78;;;22.00;43.47
70730;BME280;58315;53.336;55.932;2023-06-26T09:50:03;98765.19;;;21.78;43.80
70730;BME280;58315;53.336;55.932;2023-06-26T09:52:31;98753.59;;;21.66;43.71
70730;BME280;58315;53.336;55.932;2023-06-26T09:55:10;98759.91;;;21.72;44.52
70730;BME280;58315;53.336;55.932;2023-06-26T09:57:37;98757.00;;;21.73;44.42
70730;BME280;58315;53.336;55.932;2023-06-26T10:00:04;98753.72;;;21.71;44.61
70730;BME280;58315;53.336;55.932;2023-06-26T10:02:39;98758.31;;;21.82;44.30
70730;BME280;58315;53.336;55.932;2023-06-26T10:05:05;98764.28;;;21.73;44.39
70730;BME280;58315;53.336;55.932;2023-06-26T10:07:31;98761.69;;;21.66;44.17
70730;BME280;58315;53.336;55.932;2023-06-26T10:09:58;98763.91;;;21.39;46.49
70730;BME280;58315;53.336;55.932;2023-06-26T10:12:28;98761.72;;;21.36;46.93
70730;BME280;58315;53.336;55.932;2023-06-26T10:14:56;98756.91;;;21.38;47.20
70730;BME280;58315;53.336;55.932;2023-06-26T10:17:25;98754.00;;;21.39;49.14
70730;BME280;58315;53.336;55.932;2023-06-26T10:19:55;98753.66;;;21.36;48.66
70730;BME280;58315;53.336;55.932;2023-06-26T10:22:36;98750.19;;;21.47;48.97
70730;BME280;58315;53.336;55.932;2023-06-26T10:25:06;98740.72;;;21.56;48.91
70730;BME280;58315;53.336;55.932;2023-06-26T10:27:36;98742.72;;;21.61;48.58
70730;BME280;58315;53.336;55.932;2023-06-26T10:30:11;98739.81;;;21.62;47.82
70730;BME280;58315;53.336;55.932;2023-06-26T10:32:39;98739.22;;;21.60;46.74
70730;BME280;58315;53.336;55.932;2023-06-26T10:35:06;98741.59;;;21.80;46.63
70730;BME280;58315;53.336;55.932;2023-06-26T10:40:13;98742.59;;;22.21;46.15
70730;BME280;58315;53.336;55.932;2023-06-26T10:42:40;98740.00;;;22.26;45.99
70730;BME280;58315;53.336;55.932;2023-06-26T10:45:16;98738.38;;;22.37;45.17
70730;BME280;58315;53.336;55.932;2023-06-26T10:47:46;98735.34;;;22.45;46.64
70730;BME280;58315;53.336;55.932;2023-06-26T10:55:48;98735.44;;;22.50;43.37
70730;BME280;58315;53.336;55.932;2023-06-26T10:58:30;98736.13;;;22.57;42.28
70730;BME280;58315;53.336;55.932;2023-06-26T11:01:22;98736.06;;;22.81;43.08
70730;BME280;58315;53.336;55.932;2023-06-26T11:04:07;98734.88;;;23.00;44.05
70730;BME280;58315;53.336;55.932;2023-06-26T11:06:35;98738.97;;;22.91;43.51
70730;BME280;58315;53.336;55.932;2023-06-26T11:14:20;98719.44;;;22.84;43.23
70730;BME280;58315;53.336;55.932;2023-06-26T11:16:47;98719.34;;;22.79;42.05
70730;BME280;58315;53.336;55.932;2023-06-26T11:19:15;98721.19;;;22.90;41.71
70730;BME280;58315;53.336;55.932;2023-06-26T11:21:42;98721.63;;;22.99;42.13
70730;BME280;58315;53.336;55.932;2023-06-26T11:24:09;98738.47;;;23.06;41.95
70730;BME280;58315;53.336;55.932;2023-06-26T11:29:05;98735.56;;;23.07;40.90
70730;BME280;58315;53.336;55.932;2023-06-26T11:31:33;98730.22;;;22.84;40.82
70730;BME280;58315;53.336;55.932;2023-06-26T11:34:03;98729.59;;;22.42;42.12
70730;BME280;58315;53.336;55.932;2023-06-26T11:36:30;98728.16;;;21.92;42.67
70730;BME280;58315;53.336;55.932;2023-06-26T11:38:58;98741.22;;;21.65;43.29
70730;BME280;58315;53.336;55.932;2023-06-26T11:41:27;98732.66;;;21.56;43.53
70730;BME280;58315;53.336;55.932;2023-06-26T11:43:54;98729.06;;;21.62;43.57
70730;BME280;58315;53.336;55.932;2023-06-26T11:46:21;98735.75;;;21.83;43.63
70730;BME280;58315;53.336;55.932;2023-06-26T11:48:48;98726.19;;;21.87;44.02
70730;BME280;58315;53.336;55.932;2023-06-26T11:51:15;98725.81;;;22.07;43.58
70730;BME280;58315;53.336;55.932;2023-06-26T11:53:42;98728.16;;;22.04;42.77
70730;BME280;58315;53.336;55.932;2023-06-26T11:56:10;98737.88;;;21.93;42.79
70730;BME280;58315;53.336;55.932;2023-06-26T11:58:37;98727.53;;;21.66;43.75
70730;BME280;58315;53.336;55.932;2023-06-26T12:01:18;98724.75;;;21.73;44.01
70730;BME280;58315;53.336;55.932;2023-06-26T12:03:44;98738.19;;;21.61;43.96
70730;BME280;58315;53.336;55.932;2023-06-26T12:06:10;98733.78;;;21.37;44.56
70730;BME280;58315;53.336;55.932;2023-06-26T12:08:36;98736.38;;;21.13;44.69
70730;BME280;58315;53.336;55.932;2023-06-26T12:11:02;98738.84;;;21.27;44.96
70730;BME280;58315;53.336;55.932;2023-06-26T12:13:29;98725.56;;;21.32;44.48
70730;BME280;58315;53.336;55.932;2023-06-26T12:15:57;98738.56;;;21.35;44.23
70730;BME280;58315;53.336;55.932;2023-06-26T12:18:23;98738.41;;;21.30;44.18
70730;BME280;58315;53.336;55.932;2023-06-26T12:20:51;98761.47;;;21.19;44.32
70730;BME280;58315;53.336;55.932;2023-06-26T12:23:18;98763.47;;;20.57;45.85
70730;BME280;58315;53.336;55.932;2023-06-26T12:25:44;98770.94;;;20.30;47.75
70730;BME280;58315;53.336;55.932;2023-06-26T12:28:17;98795.63;;;20.13;51.32
70730;BME280;58315;53.336;55.932;2023-06-26T12:31:09;98771.06;;;19.91;53.58
70730;BME280;58315;53.336;55.932;2023-06-26T12:33:33;98761.84;;;19.49;52.30
70730;BME280;58315;53.336;55.932;2023-06-26T12:36:00;98763.31;;;19.45;51.67
70730;BME280;58315;53.336;55.932;2023-06-26T12:38:33;98774.69;;;19.34;52.00
70730;BME280;58315;53.336;55.932;2023-06-26T12:40:59;98801.47;;;19.40;53.97
70730;BME280;58315;53.336;55.932;2023-06-26T12:43:26;98806.91;;;19.65;53.42
70730;BME280;58315;53.336;55.932;2023-06-26T12:45:55;98809.06;;;19.82;54.12
70730;BME280;58315;53.336;55.932;2023-06-26T12:48:44;98814.16;;;19.51;53.98
70730;BME280;58315;53.336;55.932;2023-06-26T12:51:15;98829.09;;;19.34;54.32
70730;BME280;58315;53.336;55.932;2023-06-26T12:53:41;98828.28;;;18.55;54.57
70730;BME280;58315;53.336;55.932;2023-06-26T12:56:10;98841.91;;;18.14;55.02
70730;BME280;58315;53.336;55.932;2023-06-26T12:58:37;98847.63;;;17.98;55.26
70730;BME280;58315;53.336;55.932;2023-06-26T13:01:05;98855.34;;;17.73;55.67
70730;BME280;58315;53.336;55.932;2023-06-26T13:03:33;98857.59;;;17.56;56.53
70730;BME280;58315;53.336;55.932;2023-06-26T13:05:59;98863.31;;;17.46;56.78
70730;BME280;58315;53.336;55.932;2023-06-26T13:08:25;98869.69;;;17.52;56.56
70730;BME280;58315;53.336;55.932;2023-06-26T13:10:51;98869.84;;;17.44;55.93
70730;BME280;58315;53.336;55.932;2023-06-26T13:13:17;98876.22;;;17.43;56.14
70730;BME280;58315;53.336;55.932;2023-06-26T13:15:43;98876.88;;;17.03;54.74
70730;BME280;58315;53.336;55.932;2023-06-26T13:18:09;98866.25;;;16.75;54.58